Terminal Aerodrome Forecast
Issued by NWS Chicago, IL

Home | Current Version | Previous Version | Graphics & Text | Print | Product List | Glossary On
Versions: 1 2 3 4 5 6 7 8 9 10 11 12 13 14 15 16 17 18 19 20 21 22
000
FTUS43 KLOT 031120
TAFRFD
TAF
KRFD 031120Z 0312/0412 30003KT P6SM FEW080 FEW250
     FM031400 28011KT P6SM FEW060
     FM032000 25014G20KT P6SM SCT060
     FM040300 24011KT P6SM VCSH SCT040 BKN060
      TEMPO 0404/0407 4SM SHRA BKN040
     FM040700 35014G21KT P6SM BKN012=

USA.gov is the U.S. government's official web portal to all federal, state and local government web resources and services.